Port Hood, Canada
Current Conditions -  °F | °C
As of 3:06 AM on Friday 28 Nov 2014 (Local Time) from CYPD Reporting Station
Light Snow Light Snow  
Wind Chill: 20°   Ceiling: 2000
Heat Index: 28°   Visibility: 5mi
Dew Point: 27°   Wind: 8mph
Humidity: 93%   Direction: 360°N
Pressure: 29.87"   Gusts: NA
Location:  46.03°N, 61.53°W
Report Text: CYPD 280706Z AUTO 36007KT 310V020 5SM -SN BKN020 OVC025 M02/M03 A2987 RMK SLP119
Loading
Personal Weather Stations






























Interactive Weather Map New forecast layout! Learn more

10-Day Weather Forecast

Advertisements
Track Severe Weather on mobile